Time;durP1;ratioP1;P1;durP2;ratioP2;P2;SDS_P1;SDS_P2;PMS_P1;PMS_P2;Temp;Humidity;BMP_temperature;BMP_pressure;BME280_temperature;BME280_humidity;BME280_pressure;Samples;Min_cycle;Max_cycle;Signal;HPM_P1;HPM_P2
2022/03/01 05:03:06;;;;;;;9.77;6.20;;;;;;;-0.78;63.18;101953.59;5784847;27;20122;-87
2022/03/01 05:06:10;;;;;;;9.98;6.65;;;;;;;-0.84;63.79;101953.88;5398253;33;34417;-87
2022/03/01 05:09:12;;;;;;;10.02;6.78;;;;;;;-0.82;63.59;101951.16;5398072;33;34574;-87
2022/03/01 05:12:17;;;;;;;10.18;6.40;;;;;;;-0.82;63.75;101954.69;5397788;33;34059;-87
2022/03/01 05:15:21;;;;;;;8.30;5.87;;;;;;;-0.87;63.79;101943.44;5398281;33;34841;-87
2022/03/01 05:18:24;;;;;;;8.35;6.68;;;;;;;-0.90;64.28;101938.28;5398278;33;33623;-87
2022/03/01 05:21:29;;;;;;;10.40;6.72;;;;;;;-0.79;64.16;101949.25;5397935;33;34353;-87
2022/03/01 05:24:32;;;;;;;8.55;6.60;;;;;;;-0.77;64.29;101951.81;5398314;33;33910;-87
2022/03/01 05:27:36;;;;;;;10.25;6.72;;;;;;;-0.79;64.46;101948.37;5399440;33;33699;-87
2022/03/01 05:30:40;;;;;;;13.57;6.78;;;;;;;-0.74;64.21;101947.25;5385644;33;34235;-90
2022/03/01 05:33:43;;;;;;;10.70;6.87;;;;;;;-0.78;63.94;101939.53;5408312;32;34371;-91
2022/03/01 05:36:46;;;;;;;12.13;6.93;;;;;;;-0.76;63.99;101948.25;5398958;33;35336;-90
2022/03/01 05:39:49;;;;;;;9.52;6.53;;;;;;;-0.83;64.42;101942.37;5401447;33;33860;-88
2022/03/01 05:42:52;;;;;;;10.85;6.80;;;;;;;-0.83;64.44;101941.50;5400559;33;33697;-87
2022/03/01 05:45:55;;;;;;;13.62;7.18;;;;;;;-0.73;63.75;101943.69;5398753;33;33735;-87
2022/03/01 05:48:58;;;;;;;9.57;6.30;;;;;;;-0.81;63.94;101940.53;5400456;33;33869;-88
2022/03/01 05:52:01;;;;;;;10.10;6.80;;;;;;;-0.74;63.44;101944.59;5395895;32;34886;-87
2022/03/01 05:55:06;;;;;;;10.93;6.22;;;;;;;-0.65;62.90;101947.78;5398090;33;34789;-87
2022/03/01 05:58:09;;;;;;;9.80;6.40;;;;;;;-0.62;62.39;101950.28;5399571;32;34586;-88
2022/03/01 06:01:12;;;;;;;11.43;6.60;;;;;;;-0.50;62.18;101939.16;5403383;33;34073;-88
2022/03/01 06:04:15;;;;;;;10.60;6.37;;;;;;;-0.42;61.79;101947.63;5402025;33;33942;-88
2022/03/01 06:07:19;;;;;;;9.65;6.72;;;;;;;-0.38;61.58;101945.69;5403809;33;34016;-88
2022/03/01 06:10:24;;;;;;;10.27;6.85;;;;;;;-0.17;60.78;101947.41;5403572;33;34559;-88
2022/03/01 06:13:27;;;;;;;11.93;6.70;;;;;;;-0.05;60.33;101951.25;5400385;33;34856;-88
2022/03/01 06:16:30;;;;;;;13.10;6.50;;;;;;;0.03;60.36;101954.41;5398310;32;35849;-88
2022/03/01 06:19:33;;;;;;;16.12;6.93;;;;;;;0.22;59.50;101949.97;5398745;32;33963;-88
2022/03/01 06:22:37;;;;;;;11.80;6.35;;;;;;;0.41;58.96;101952.59;5398540;33;34697;-88
2022/03/01 06:25:42;;;;;;;13.48;6.68;;;;;;;0.54;58.23;101952.00;5398165;33;33789;-88
2022/03/01 06:28:45;;;;;;;10.18;6.30;;;;;;;0.65;57.46;101947.06;5398564;33;34713;-88
2022/03/01 06:31:47;;;;;;;11.27;6.45;;;;;;;0.83;57.26;101950.59;5398255;33;33903;-87
2022/03/01 06:34:50;;;;;;;11.00;6.97;;;;;;;0.90;56.44;101949.31;5398803;32;34032;-87
2022/03/01 06:38:13;;;;;;;11.65;6.55;;;;;;;1.04;56.61;101938.03;5398785;33;34055;-88
2022/03/01 06:41:16;;;;;;;10.07;6.82;;;;;;;1.12;55.50;101946.47;5399206;33;33954;-87
2022/03/01 06:44:19;;;;;;;13.35;6.97;;;;;;;1.30;55.47;101944.66;5397384;32;33870;-87
2022/03/01 06:47:23;;;;;;;12.00;5.93;;;;;;;1.41;54.69;101947.63;5397249;33;34931;-87
2022/03/01 06:50:26;;;;;;;9.23;5.97;;;;;;;1.81;53.63;101940.16;5397859;33;34392;-87
2022/03/01 06:53:29;;;;;;;7.12;5.05;;;;;;;2.53;51.78;101949.47;5397295;33;35506;-87
2022/03/01 06:56:32;;;;;;;7.95;4.50;;;;;;;3.14;49.04;101942.41;5397249;33;33792;-87
2022/03/01 06:59:35;;;;;;;5.80;3.92;;;;;;;3.12;48.89;101942.47;5398097;33;33833;-87
2022/03/01 07:02:38;;;;;;;5.55;4.12;;;;;;;3.06;48.04;101934.84;5397185;33;34247;-87
2022/03/01 07:05:42;;;;;;;6.57;4.70;;;;;;;2.93;48.16;101941.87;5397797;33;33929;-87
2022/03/01 07:08:45;;;;;;;9.60;4.97;;;;;;;2.90;49.36;101939.38;5397640;32;33789;-87
2022/03/01 07:11:48;;;;;;;6.15;4.47;;;;;;;2.66;49.12;101929.22;5399125;33;35480;-87
2022/03/01 07:14:52;;;;;;;6.47;4.30;;;;;;;2.66;49.68;101933.66;5398264;33;34133;-88
2022/03/01 07:17:55;;;;;;;5.72;4.28;;;;;;;2.79;50.00;101925.84;5395813;32;34460;-88
2022/03/01 07:20:58;;;;;;;10.52;4.75;;;;;;;2.90;48.77;101934.06;5394825;32;33762;-88
2022/03/01 07:24:02;;;;;;;8.73;4.00;;;;;;;2.97;48.65;101921.25;5380915;33;34778;-88
2022/03/01 07:27:04;;;;;;;6.80;3.87;;;;;;;3.15;47.88;101926.31;5400381;33;33952;-88
2022/03/01 07:30:08;;;;;;;4.65;3.67;;;;;;;3.30;47.46;101926.34;5394281;32;34174;-89
2022/03/01 07:33:11;;;;;;;5.40;3.70;;;;;;;3.61;46.52;101912.03;5392126;32;35156;-91
2022/03/01 07:36:14;;;;;;;10.95;4.40;;;;;;;3.75;46.53;101909.38;5407584;32;34750;-92
2022/03/01 07:39:17;;;;;;;7.30;4.10;;;;;;;3.76;45.99;101918.22;5400361;33;34950;-92
2022/03/01 07:42:24;;;;;;;7.82;4.20;;;;;;;3.75;46.07;101913.84;5401557;32;34002;-91
2022/03/01 07:45:27;;;;;;;7.20;4.40;;;;;;;3.92;45.65;101910.97;5407678;32;34818;-88
2022/03/01 07:48:30;;;;;;;6.85;4.30;;;;;;;4.01;45.22;101915.72;5414137;32;35286;-88
2022/03/01 07:51:33;;;;;;;6.40;4.40;;;;;;;4.07;45.18;101919.81;5400052;32;33844;-89
2022/03/01 07:54:36;;;;;;;4.32;3.67;;;;;;;4.21;45.79;101913.56;5397218;33;34199;-88
2022/03/01 07:57:39;;;;;;;7.55;4.37;;;;;;;5.07;43.19;101908.75;5400606;32;33880;-88
2022/03/01 08:00:42;;;;;;;8.30;4.18;;;;;;;5.63;41.43;101917.31;5405014;33;34443;-88
2022/03/01 08:03:53;;;;;;;7.12;4.22;;;;;;;5.46;41.67;101914.97;5413241;33;34103;-89
2022/03/01 08:06:56;;;;;;;6.60;4.10;;;;;;;5.18;42.31;101914.22;5411042;33;33975;-88
2022/03/01 08:10:00;;;;;;;7.30;4.50;;;;;;;5.35;42.69;101915.72;5417924;32;34110;-89
2022/03/01 08:13:02;;;;;;;5.65;3.40;;;;;;;5.16;42.26;101918.78;5403787;32;34325;-89
2022/03/01 08:16:06;;;;;;;5.93;3.75;;;;;;;4.96;42.53;101916.62;5399955;33;33892;-88
2022/03/01 08:19:09;;;;;;;5.25;3.83;;;;;;;4.81;42.39;101917.66;5405320;32;34500;-88
2022/03/01 08:22:12;;;;;;;5.40;3.60;;;;;;;4.99;42.00;101914.59;5401506;32;34276;-88
2022/03/01 08:25:16;;;;;;;8.10;3.90;;;;;;;5.30;41.77;101915.19;5396907;32;34973;-89
2022/03/01 08:28:19;;;;;;;3.47;3.12;;;;;;;5.43;40.91;101916.03;5400046;33;33937;-88
2022/03/01 08:31:22;;;;;;;5.50;3.53;;;;;;;5.15;40.60;101919.75;5400929;33;33968;-88
2022/03/01 08:34:25;;;;;;;5.12;3.37;;;;;;;5.16;41.28;101915.28;5403427;32;34001;-87
2022/03/01 08:37:28;;;;;;;8.07;3.50;;;;;;;5.53;40.93;101900.22;5464059;27;34692;-85
2022/03/01 08:40:40;;;;;;;6.47;3.05;;;;;;;5.75;39.39;101904.06;5412519;32;35283;-87
2022/03/01 08:43:43;;;;;;;6.07;3.45;;;;;;;5.57;39.12;101898.19;5446260;27;34791;-87
2022/03/01 08:46:49;;;;;;;4.03;3.40;;;;;;;5.82;39.43;101890.16;5393019;33;32410;-87
2022/03/01 08:49:53;;;;;;;4.57;2.90;;;;;;;6.03;37.97;101897.63;5389590;33;34123;-87
2022/03/01 08:52:56;;;;;;;3.30;3.00;;;;;;;5.71;37.66;101895.41;5386317;33;34865;-87
2022/03/01 08:56:00;;;;;;;6.10;3.35;;;;;;;5.74;37.72;101884.50;5398127;33;33620;-89
2022/03/01 08:59:05;;;;;;;3.58;2.87;;;;;;;5.74;36.74;101892.50;5397960;32;32498;-87
2022/03/01 09:02:08;;;;;;;3.80;2.55;;;;;;;5.97;37.44;101888.22;5389568;32;236547;-88
2022/03/01 09:05:12;;;;;;;4.37;3.03;;;;;;;5.85;36.45;101886.38;5398798;32;33419;-88
2022/03/01 09:08:15;;;;;;;3.90;3.05;;;;;;;6.07;37.12;101880.38;5396163;32;34944;-88
2022/03/01 09:11:18;;;;;;;4.90;2.95;;;;;;;6.37;35.73;101878.13;5399899;32;34138;-88
2022/03/01 09:14:21;;;;;;;4.70;3.00;;;;;;;6.36;36.52;101884.44;5394015;32;34222;-88
2022/03/01 09:17:24;;;;;;;3.70;2.97;;;;;;;6.26;34.87;101878.09;5398083;32;35177;-87
2022/03/01 09:20:28;;;;;;;4.70;2.80;;;;;;;6.35;35.81;101874.72;5397364;32;33542;-88
2022/03/01 09:23:32;;;;;;;4.30;2.90;;;;;;;6.45;34.55;101879.38;5394043;33;34588;-88
2022/03/01 09:26:34;;;;;;;8.80;3.05;;;;;;;6.72;35.14;101860.41;5399410;32;34073;-88
2022/03/01 09:29:37;;;;;;;4.35;2.70;;;;;;;6.62;34.33;101854.03;5393447;33;33484;-88
2022/03/01 09:32:40;;;;;;;5.50;2.80;;;;;;;6.13;34.92;101851.38;5387648;33;32464;-88
2022/03/01 09:35:44;;;;;;;4.10;3.10;;;;;;;6.07;34.27;101851.81;5393607;32;36298;-92
2022/03/01 09:38:46;;;;;;;4.82;3.25;;;;;;;6.29;34.03;101844.91;5393659;33;34082;-92
2022/03/01 09:41:51;;;;;;;6.28;2.80;;;;;;;6.46;34.03;101843.63;5394300;33;34765;-92
2022/03/01 09:44:54;;;;;;;4.35;2.78;;;;;;;6.66;34.14;101840.31;5393138;33;34060;-92
2022/03/01 09:47:57;;;;;;;5.37;2.87;;;;;;;6.93;34.83;101829.31;5391079;33;35230;-88
2022/03/01 09:51:02;;;;;;;7.62;2.95;;;;;;;7.21;34.63;101829.84;5397498;33;33496;-88
2022/03/01 09:54:05;;;;;;;8.02;3.05;;;;;;;6.99;33.63;101826.19;5397677;32;33613;-88
2022/03/01 09:57:14;;;;;;;4.25;2.60;;;;;;;6.86;32.98;101820.03;5397240;33;34290;-86
2022/03/01 10:00:18;;;;;;;6.80;3.05;;;;;;;6.90;33.24;101820.66;5397400;33;33856;-87
2022/03/01 10:03:22;;;;;;;15.90;4.37;;;;;;;6.78;33.62;101825.12;5399351;33;34014;-87
2022/03/01 10:06:26;;;;;;;5.90;3.40;;;;;;;7.10;33.50;101819.13;5397193;33;35004;-88
2022/03/01 10:09:30;;;;;;;8.82;3.05;;;;;;;7.26;33.69;101807.09;5388303;33;34977;-88
2022/03/01 10:12:33;;;;;;;5.28;3.15;;;;;;;7.18;31.88;101809.50;5396072;33;34663;-88
2022/03/01 10:15:36;;;;;;;5.28;3.10;;;;;;;6.68;33.36;101813.44;5396829;33;34022;-88
2022/03/01 10:18:42;;;;;;;12.95;3.33;;;;;;;6.67;32.44;101807.25;5396724;33;33869;-88
2022/03/01 10:21:56;;;;;;;9.63;3.28;;;;;;;6.51;33.38;101793.31;5393894;33;34556;-88
2022/03/01 10:25:05;;;;;;;4.05;2.75;;;;;;;6.72;32.17;101788.12;5396390;33;35019;-87
2022/03/01 10:28:08;;;;;;;7.82;3.03;;;;;;;6.69;32.07;101775.00;5395170;33;35325;-87
2022/03/01 10:31:13;;;;;;;4.10;3.22;;;;;;;6.95;31.82;101778.31;5395921;33;34665;-87
2022/03/01 10:34:18;;;;;;;6.80;2.80;;;;;;;6.93;31.71;101772.22;5394780;33;34447;-87
2022/03/01 10:37:26;;;;;;;4.07;2.75;;;;;;;7.12;30.95;101772.50;5394845;33;34898;-87
2022/03/01 10:40:31;;;;;;;3.58;2.85;;;;;;;7.06;30.36;101762.28;5381358;33;33448;-88
2022/03/01 10:43:34;;;;;;;6.75;3.20;;;;;;;7.28;30.59;101753.38;5390404;33;34144;-87
2022/03/01 10:46:43;;;;;;;3.87;2.90;;;;;;;7.33;30.75;101753.00;5385461;33;34153;-88
2022/03/01 10:49:46;;;;;;;4.43;2.90;;;;;;;7.49;30.35;101746.31;5392549;33;35415;-88
2022/03/01 10:52:49;;;;;;;7.05;3.00;;;;;;;7.74;30.02;101736.25;5395459;33;33576;-88
2022/03/01 10:56:00;;;;;;;3.28;2.90;;;;;;;7.43;28.95;101730.72;5386167;33;33870;-88
2022/03/01 10:59:05;;;;;;;4.68;3.08;;;;;;;7.43;29.36;101724.50;5386330;33;34449;-87
2022/03/01 11:02:08;;;;;;;4.53;3.05;;;;;;;7.58;29.81;101720.59;5396647;33;34029;-87
2022/03/01 11:05:11;;;;;;;4.43;3.10;;;;;;;7.75;29.30;101721.00;5396907;33;34326;-87
2022/03/01 11:08:16;;;;;;;4.45;2.70;;;;;;;7.58;28.84;101704.50;5400936;32;34153;-87
2022/03/01 11:11:23;;;;;;;4.70;3.05;;;;;;;7.52;28.64;101705.00;5399231;32;34171;-87
2022/03/01 11:14:35;;;;;;;7.25;3.20;;;;;;;7.67;28.60;101697.53;5391397;33;34065;-90
2022/03/01 11:17:55;;;;;;;4.68;3.03;;;;;;;8.26;29.12;101677.41;5396151;33;33765;-88
2022/03/01 11:21:01;;;;;;;4.80;3.13;;;;;;;8.51;28.55;101681.53;5394538;33;34761;-87
2022/03/01 11:24:05;;;;;;;4.70;3.17;;;;;;;8.77;27.65;101669.38;5378578;33;35390;-87
2022/03/01 11:27:08;;;;;;;4.20;2.92;;;;;;;9.25;27.20;101674.09;5380365;33;34516;-87
2022/03/01 11:30:12;;;;;;;4.82;3.37;;;;;;;9.51;26.89;101668.22;5405819;33;35655;-87
2022/03/01 11:33:27;;;;;;;3.10;2.80;;;;;;;9.58;26.77;101657.75;5396764;33;35252;-87
2022/03/01 11:36:32;;;;;;;7.32;3.30;;;;;;;9.20;26.51;101644.09;5389936;33;33938;-88
2022/03/01 11:39:35;;;;;;;5.57;3.22;;;;;;;9.50;26.48;101643.16;5387306;32;34049;-88
2022/03/01 11:42:38;;;;;;;4.95;3.20;;;;;;;10.19;26.78;101642.16;5397998;32;34750;-88
2022/03/01 11:45:53;;;;;;;5.25;3.15;;;;;;;10.66;24.28;101647.59;5397960;32;34643;-88
2022/03/01 11:48:57;;;;;;;4.43;3.03;;;;;;;10.79;23.97;101633.81;5398339;32;34694;-88
2022/03/01 11:52:00;;;;;;;6.60;2.85;;;;;;;10.84;23.78;101636.03;5397089;32;33749;-88
2022/03/01 11:55:04;;;;;;;3.12;2.78;;;;;;;11.15;22.84;101624.97;5404544;32;34879;-88
2022/03/01 11:58:09;;;;;;;6.40;2.92;;;;;;;11.02;23.32;101611.84;5388956;33;35308;-87
2022/03/01 12:01:12;;;;;;;4.78;2.72;;;;;;;11.76;23.15;101617.00;5390788;32;35031;-88
2022/03/01 12:04:26;;;;;;;4.82;2.67;;;;;;;13.52;20.82;101611.22;5386662;32;32749;-88
2022/03/01 12:07:30;;;;;;;4.95;2.92;;;;;;;14.74;18.87;101599.44;5387319;32;32326;-88
2022/03/01 12:10:34;;;;;;;4.12;2.58;;;;;;;15.25;17.67;101599.00;5388348;32;35305;-88
2022/03/01 12:13:36;;;;;;;4.82;2.70;;;;;;;15.99;17.12;101602.03;5387970;32;34765;-88
2022/03/01 12:16:39;;;;;;;3.67;2.55;;;;;;;16.61;16.90;101594.62;5388460;32;33662;-88
2022/03/01 12:19:42;;;;;;;4.18;3.05;;;;;;;16.33;17.53;101587.97;5395981;33;32551;-88
2022/03/01 12:23:03;;;;;;;4.68;2.87;;;;;;;17.24;16.81;101587.72;5406072;32;34396;-88
2022/03/01 12:26:08;;;;;;;3.28;2.80;;;;;;;18.60;14.41;101577.53;5393853;33;34633;-90
2022/03/01 12:29:14;;;;;;;5.50;2.83;;;;;;;19.93;14.08;101572.53;5405921;32;34195;-91
2022/03/01 12:32:18;;;;;;;3.35;3.03;;;;;;;20.24;13.17;101562.81;5407752;32;34966;-93
2022/03/01 12:35:23;;;;;;;6.05;2.70;;;;;;;21.15;12.89;101567.34;5403299;32;33946;-89
2022/03/01 12:38:26;;;;;;;4.50;2.55;;;;;;;20.43;13.20;101566.56;5402895;32;34933;-89
2022/03/01 12:41:30;;;;;;;3.53;2.78;;;;;;;20.22;13.12;101563.03;5393125;32;34537;-89
2022/03/01 12:44:34;;;;;;;3.83;2.83;;;;;;;22.30;12.48;101559.78;5394923;32;33462;-88
2022/03/01 12:47:40;;;;;;;3.40;3.00;;;;;;;21.30;12.74;101556.97;5399177;32;33935;-88
2022/03/01 12:50:51;;;;;;;3.90;2.70;;;;;;;21.69;12.26;101550.38;5394574;32;33676;-89
2022/03/01 12:53:57;;;;;;;4.00;2.50;;;;;;;22.31;12.22;101533.19;5394787;32;33967;-88
2022/03/01 12:57:05;;;;;;;4.25;2.80;;;;;;;21.85;12.11;101543.53;5396016;32;33833;-89
2022/03/01 13:00:10;;;;;;;4.63;2.40;;;;;;;22.54;11.72;101540.75;5395983;32;33628;-88
2022/03/01 13:03:24;;;;;;;3.40;2.60;;;;;;;21.04;12.20;101533.31;5390079;32;35295;-88
2022/03/01 13:06:28;;;;;;;2.80;2.50;;;;;;;20.95;12.30;101529.16;5394061;32;34303;-88
2022/03/01 13:09:31;;;;;;;4.03;2.67;;;;;;;19.11;13.06;101522.59;5394450;32;34880;-88
2022/03/01 13:12:36;;;;;;;9.20;2.80;;;;;;;16.15;15.37;101521.44;5391852;32;34675;-88
2022/03/01 13:15:39;;;;;;;2.90;2.70;;;;;;;14.47;16.79;101513.94;5393785;33;34053;-88
2022/03/01 13:18:42;;;;;;;4.35;3.17;;;;;;;13.79;17.62;101515.31;5396061;32;34233;-88
2022/03/01 13:22:04;;;;;;;4.05;2.90;;;;;;;13.41;17.42;101513.28;5394419;32;34097;-88
2022/03/01 13:25:07;;;;;;;6.43;3.00;;;;;;;12.15;19.31;101505.97;5400136;32;33983;-88
2022/03/01 13:28:12;;;;;;;3.83;2.60;;;;;;;11.35;20.29;101507.91;5394583;33;35071;-87
2022/03/01 13:31:27;;;;;;;4.97;2.78;;;;;;;10.77;19.67;101508.34;5400612;32;35482;-87
2022/03/01 13:34:30;;;;;;;3.87;2.95;;;;;;;10.70;20.63;101500.00;5397433;32;34648;-87
2022/03/01 13:37:36;;;;;;;3.72;2.78;;;;;;;10.61;19.77;101488.28;5394459;32;33689;-87
2022/03/01 13:40:44;;;;;;;4.03;3.10;;;;;;;9.89;19.82;101491.72;5398597;32;33216;-87
2022/03/01 13:43:47;;;;;;;6.07;3.42;;;;;;;9.89;20.61;101489.03;5389954;33;34286;-87
2022/03/01 13:47:10;;;;;;;4.87;3.17;;;;;;;9.67;21.13;101485.66;5393395;32;33654;-91
2022/03/01 13:50:16;;;;;;;5.93;3.05;;;;;;;9.54;21.05;101477.91;5392202;32;33583;-87
2022/03/01 13:53:24;;;;;;;5.22;2.90;;;;;;;9.34;21.10;101475.41;5409295;32;33212;-88
2022/03/01 13:56:27;;;;;;;5.22;2.80;;;;;;;9.33;21.41;101477.25;5412581;33;35364;-87
2022/03/01 13:59:30;;;;;;;6.10;2.95;;;;;;;9.15;21.44;101476.22;5414391;33;35131;-88
2022/03/01 14:02:33;;;;;;;5.12;2.60;;;;;;;8.93;21.16;101467.47;5414712;32;35021;-87
2022/03/01 14:05:41;;;;;;;4.05;2.62;;;;;;;8.89;21.14;101465.19;5412541;32;35470;-87
2022/03/01 14:08:53;;;;;;;7.53;3.05;;;;;;;8.84;21.69;101468.31;5413079;32;35253;-86
2022/03/01 14:11:58;;;;;;;4.78;2.90;;;;;;;8.76;21.49;101460.94;5411879;33;34263;-87
2022/03/01 14:15:02;;;;;;;3.30;2.62;;;;;;;8.36;22.05;101455.59;5414661;32;35307;-88
2022/03/01 14:18:08;;;;;;;4.10;3.00;;;;;;;8.28;22.35;101452.78;5413434;33;35489;-87
2022/03/01 14:21:13;;;;;;;4.30;2.87;;;;;;;8.30;22.64;101453.47;5416206;32;35461;-88
2022/03/01 14:24:21;;;;;;;3.80;2.47;;;;;;;8.21;22.19;101455.13;5415925;33;34347;-87
2022/03/01 14:27:26;;;;;;;2.72;2.50;;;;;;;8.17;22.07;101448.34;5408981;33;35297;-88
2022/03/01 14:30:29;;;;;;;4.37;2.72;;;;;;;8.26;20.87;101452.06;5415636;33;34134;-88
2022/03/01 14:33:32;;;;;;;4.85;2.70;;;;;;;8.15;20.96;101455.69;5415989;33;35195;-87
2022/03/01 14:36:36;;;;;;;3.58;2.60;;;;;;;8.08;20.89;101454.53;5411003;32;35446;-88
2022/03/01 14:39:39;;;;;;;6.62;2.80;;;;;;;8.02;21.54;101450.56;5407308;32;35301;-88
2022/03/01 14:42:42;;;;;;;5.68;2.62;;;;;;;7.99;21.44;101458.03;5414138;32;34193;-88
2022/03/01 14:45:44;;;;;;;2.72;2.53;;;;;;;7.90;21.76;101444.44;5409268;33;33873;-88
2022/03/01 14:48:49;;;;;;;4.05;2.87;;;;;;;7.89;21.60;101445.41;5412353;32;34010;-87
2022/03/01 14:51:51;;;;;;;3.65;2.65;;;;;;;7.90;22.10;101435.56;5413553;32;34230;-86
2022/03/01 14:54:54;;;;;;;4.18;2.42;;;;;;;7.87;21.05;101436.66;5415512;33;35413;-87
2022/03/01 14:57:58;;;;;;;3.30;2.50;;;;;;;7.87;21.71;101439.34;5415203;32;35169;-88
2022/03/01 15:01:01;;;;;;;3.92;2.70;;;;;;;7.79;21.53;101432.94;5424194;27;35302;-88
2022/03/01 15:04:04;;;;;;;3.97;2.97;;;;;;;7.65;21.40;101431.47;5433124;32;34152;-89
2022/03/01 15:07:08;;;;;;;6.15;3.17;;;;;;;7.59;21.84;101434.69;5444365;27;35294;-89
2022/03/01 15:10:13;;;;;;;4.00;2.95;;;;;;;7.58;22.03;101425.78;5433619;32;36799;-89
2022/03/01 15:13:17;;;;;;;5.43;2.92;;;;;;;7.45;22.47;101420.63;5433729;32;33869;-90
2022/03/01 15:16:19;;;;;;;3.55;2.92;;;;;;;7.38;22.20;101432.03;5428342;32;35232;-88
2022/03/01 15:19:23;;;;;;;7.53;3.08;;;;;;;7.37;21.84;101416.91;5415268;32;35311;-90
2022/03/01 15:22:25;;;;;;;4.15;2.70;;;;;;;7.33;21.96;101419.00;5458286;27;35210;-89
2022/03/01 15:25:29;;;;;;;6.70;2.90;;;;;;;7.32;22.49;101420.00;5433705;32;35423;-89
2022/03/01 15:28:33;;;;;;;4.07;3.17;;;;;;;7.29;22.46;101412.22;5433275;32;35250;-90
2022/03/01 15:31:37;;;;;;;3.45;3.03;;;;;;;7.32;22.37;101414.62;5432337;32;35438;-91
2022/03/01 15:34:39;;;;;;;5.43;2.53;;;;;;;7.23;22.42;101410.91;5432026;32;35449;-92
2022/03/01 15:37:43;;;;;;;3.22;2.87;;;;;;;7.17;22.34;101407.91;5432312;32;33711;-91
2022/03/01 15:40:46;;;;;;;3.80;2.90;;;;;;;7.18;22.56;101406.94;5425785;32;35168;-88
2022/03/01 15:43:49;;;;;;;4.78;3.03;;;;;;;7.13;22.72;101401.94;5432586;32;35590;-88
2022/03/01 15:46:52;;;;;;;3.30;2.90;;;;;;;7.09;22.59;101402.34;5428400;32;34988;-88
2022/03/01 15:49:54;;;;;;;5.97;3.30;;;;;;;7.07;22.84;101405.16;5428098;32;35427;-88
2022/03/01 15:52:57;;;;;;;4.35;3.10;;;;;;;7.01;22.90;101400.31;5434894;32;35381;-88
2022/03/01 15:56:00;;;;;;;3.55;3.08;;;;;;;6.91;23.22;101394.91;5425134;32;34222;-87
2022/03/01 15:59:03;;;;;;;5.68;3.78;;;;;;;6.89;23.27;101396.84;5434739;32;33812;-87
2022/03/01 16:02:06;;;;;;;5.05;3.30;;;;;;;6.87;23.32;101406.81;5427917;32;35263;-88
2022/03/01 16:05:10;;;;;;;4.40;3.10;;;;;;;6.80;23.03;101395.78;5418328;32;33935;-88
2022/03/01 16:08:13;;;;;;;4.28;2.87;;;;;;;6.79;23.08;101396.78;5423369;32;34314;-88
2022/03/01 16:11:16;;;;;;;4.15;2.90;;;;;;;6.75;23.67;101391.78;5418416;32;35439;-88
2022/03/01 16:14:18;;;;;;;5.65;3.40;;;;;;;6.67;23.61;101388.91;5417821;32;33692;-88
2022/03/01 16:17:21;;;;;;;4.12;3.00;;;;;;;6.60;23.96;101401.94;5419297;32;33925;-88
2022/03/01 16:20:24;;;;;;;4.45;3.12;;;;;;;6.48;24.29;101394.94;5411852;32;34324;-87
2022/03/01 16:23:27;;;;;;;7.87;3.15;;;;;;;6.35;24.76;101403.97;5418065;32;36081;-88
2022/03/01 16:26:31;;;;;;;7.55;2.90;;;;;;;6.24;25.29;101400.47;5416091;32;35869;-88
2022/03/01 16:29:38;;;;;;;7.05;3.12;;;;;;;6.18;25.39;101399.16;5410600;33;34296;-89
2022/03/01 16:32:41;;;;;;;5.03;3.10;;;;;;;6.03;26.42;101397.72;5416791;32;35248;-88
2022/03/01 16:35:43;;;;;;;6.15;3.50;;;;;;;5.96;26.13;101399.16;5432721;32;35427;-88
2022/03/01 16:38:48;;;;;;;7.22;3.37;;;;;;;5.85;28.41;101399.97;5416391;32;33779;-88
2022/03/01 16:41:51;;;;;;;6.72;3.65;;;;;;;5.82;26.83;101397.56;5400212;33;34157;-88
2022/03/01 16:44:53;;;;;;;4.93;3.30;;;;;;;5.65;27.42;101399.75;5401130;33;34436;-88
2022/03/01 16:47:57;;;;;;;7.82;3.15;;;;;;;5.52;27.24;101396.34;5403256;32;33541;-88
2022/03/01 16:50:59;;;;;;;4.22;3.30;;;;;;;5.38;27.84;101400.09;5402833;32;34780;-88
2022/03/01 16:54:03;;;;;;;4.93;3.83;;;;;;;5.30;27.02;101399.84;5412816;32;34168;-88
2022/03/01 16:57:09;;;;;;;6.78;3.70;;;;;;;5.21;27.69;101412.06;5406893;32;35348;-88
2022/03/01 17:00:13;;;;;;;5.18;3.67;;;;;;;5.09;27.52;101398.81;5413412;32;33783;-88
